Hilo, HI

2:10 AM HST on August 29, 2014 (GMT -1000)
Hilo International | Change Station
CLOSE
Current Station
Airport
Location: Hilo,
Elevation: 36 ft
Nearby Weather Stations
Active Advisory: High Surf Advisory

Elev 36 ft 19.72 °N, 155.05 °W | Updated 17 minutes ago

Clear
Clear
70 °F
Feels Like 70 °F
N
7
Wind Variable Wind from SW

Today
High -- | Low -- °F
--% Chance of Precip.
Yesterday
High -- | Low -- °F
Precip. -- in
6:04 AM 6:37 PM
Waxing Crescent, 14% visible
Pressure 29.88 in
Visibility 10.0 miles
Clouds Clear
Dew Point 64 °F
Humidity 81%
Rainfall 0.00 in
Snow Depth Not available.
UV 0 out of 12
Pollen Not available.
Air Quality Not available.
Flu Activity Not available.
METAR PHTO 291153Z 23006KT 10SM CLR 21/18 A2989 RMK AO2 SLP119 60001 70002 T02110178 10244 20211 57007 $

More Conditions Fewer Conditions

Pressure 29.88 in
Visibility 10.0 miles
Clouds Clear
Dew Point 64 °F
Humidity 81%
Rainfall 0.00 in
Snow Depth Not available.
UV 0 out of 12
Pollen Not available.
Air Quality Not available.
Flu Activity Not available.
METAR PHTO 291153Z 23006KT 10SM CLR 21/18 A2989 RMK AO2 SLP119 60001 70002 T02110178 10244 20211 57007 $

More Conditions Fewer Conditions

10-Day Weather Forecast

Almanac

Astronomy

Aug. 29, 2014 Rise Set
Actual Time 6:04 AM HST 6:37 PM HST
Civil Twilight 5:41 AM HST 7:00 PM HST
Nautical Twilight 5:15 AM HST 7:26 PM HST
Astronomical Twilight 4:49 AM HST 7:52 PM HST
Moon 9:27 AM HST 9:21 PM HST
Length of Visible Light 13h 18m
Length of Day
12h 33m
Tomorrow will be 1m 5s shorter.
Waxing Crescent, 14% of the Moon is Illuminated
Today
Waxing Crescent
Sep 2
First Quarter
Sep 8
Full
Sep 15
Last Quarter
Sep 24
New

Today's Extremes

State Highs State Lows

Community

WunderPhotos

Upload Photos

1,748,217 photos uploaded!

Nearby

Air Quality

  Air Quality AQ Index Pollutant
Yesterday Good
PM2.5

Snow Depth

Station Depth Elevation
No new snow has been reported.

Earthquake Activity

City Distance Mag. Time & Date
No recent earthquake activity has been reported nearby.
Minimum magnitude displayed is 2.5.

Coastal Water Temperatures

Place Temperature
No Stations Reporting

Nearby Weather Stations